KUOX/UOX METAR and TAF weather

Enter ICAO airport designator
Station Type Date Time Source
KUOX METAR 2019/10/21 02:35 UTC NOAA

KUOX 210235Z AUTO 14007KT 10SM FEW040 SCT048 19/17 A2987 RMK AO2


Station Type Date Time Source
KUOX Decoded METAR 2019/10/21 02:35 UTC NOAA

Oxford, University-Oxford Airport, MS, United States (KUOX) 34-23-04N 089-32-08W
Oct 20, 2019 - 10:35 PM EDT / 2019.10.21 0235 UTC
Wind: from the SE (140 degrees) at 8 MPH (7 KT):0
Visibility: 10 mile(s):0
Sky conditions: partly cloudy
Temperature: 66 F (19 C)
Dew Point: 62 F (17 C)
Relative Humidity: 88%
Pressure (altimeter): 29.87 in. Hg (1011 hPa)
ob: KUOX 210235Z AUTO 14007KT 10SM FEW040 SCT048 19/17 A2987 RMK AO2
cycle: 2

Station Type Date Time Source
KUOX TAF UTC NOAA

Error!

Example: see airport list